Time;durP1;ratioP1;P1;durP2;ratioP2;P2;SDS_P1;SDS_P2;PMS_P1;PMS_P2;Temp;Humidity;BMP_temperature;BMP_pressure;BME280_temperature;BME280_humidity;BME280_pressure;Samples;Min_cycle;Max_cycle;Signal;HPM_P1;HPM_P2
2022/03/18 00:06:29;;;;;;;68.35;46.28;;;25.90;99.90;;;;;;5132144;27;21210;-61
2022/03/18 00:08:55;;;;;;;25.55;19.27;;;25.90;99.90;;;;;;5112402;28;20036;-56
2022/03/18 00:11:22;;;;;;;19.80;12.55;;;26.00;99.90;;;;;;5128674;28;20027;-61
2022/03/18 00:13:49;;;;;;;12.32;9.25;;;26.10;99.90;;;;;;5123821;28;20371;-60
2022/03/18 00:16:16;;;;;;;19.48;10.32;;;26.10;99.90;;;;;;5132038;28;20031;-61
2022/03/18 00:18:43;;;;;;;16.88;8.00;;;26.20;99.90;;;;;;5132218;28;20118;-61
2022/03/18 00:21:10;;;;;;;19.15;9.35;;;26.20;99.90;;;;;;5128224;28;20020;-61
2022/03/18 00:23:36;;;;;;;22.67;9.32;;;26.20;99.90;;;;;;5111435;28;20023;-62
2022/03/18 00:26:03;;;;;;;19.85;11.40;;;26.30;99.90;;;;;;5111189;28;20070;-62
2022/03/18 00:28:30;;;;;;;21.50;10.90;;;26.40;99.90;;;;;;5121910;28;20023;-62
2022/03/18 00:30:57;;;;;;;25.15;15.05;;;26.40;99.90;;;;;;5131501;28;20035;-61
2022/03/18 00:33:25;;;;;;;23.55;15.52;;;26.40;99.90;;;;;;5131254;28;20501;-62
2022/03/18 00:35:52;;;;;;;25.63;14.65;;;26.50;99.90;;;;;;5131372;28;20031;-63
2022/03/18 00:38:19;;;;;;;21.63;13.40;;;26.50;99.90;;;;;;5125691;28;20032;-62
2022/03/18 00:40:45;;;;;;;19.95;9.23;;;26.50;99.90;;;;;;5110850;28;20024;-64
2022/03/18 00:43:12;;;;;;;14.20;8.70;;;26.60;99.90;;;;;;5115230;28;20034;-64
2022/03/18 00:45:39;;;;;;;13.93;7.50;;;26.60;99.90;;;;;;5131162;28;20025;-61
2022/03/18 00:53:22;;;;;;;9.35;6.07;;;26.60;99.90;;;;;;5148270;27;20028;-61
2022/03/18 00:55:49;;;;;;;14.82;6.85;;;26.60;99.90;;;;;;5152385;27;20030;-61
2022/03/18 00:58:15;;;;;;;8.10;5.28;;;26.70;99.90;;;;;;5159917;27;20023;-62
2022/03/18 01:00:42;;;;;;;15.25;8.23;;;26.70;99.90;;;;;;5159697;27;20037;-61
2022/03/18 01:03:09;;;;;;;9.20;6.30;;;26.80;99.90;;;;;;5140884;27;20084;-61
2022/03/18 01:05:36;;;;;;;10.27;5.68;;;26.90;99.90;;;;;;5171974;27;20045;-62
2022/03/18 01:08:03;;;;;;;8.82;5.45;;;27.00;99.90;;;;;;5163580;27;20391;-61
2022/03/18 01:10:30;;;;;;;7.75;5.35;;;27.10;99.90;;;;;;5163942;27;20022;-62
2022/03/18 01:12:56;;;;;;;6.70;5.20;;;27.10;99.90;;;;;;5155141;27;20038;-60
2022/03/18 01:15:23;;;;;;;7.75;5.90;;;27.20;99.90;;;;;;5166865;27;20091;-61
2022/03/18 01:17:51;;;;;;;11.60;6.35;;;27.20;99.90;;;;;;5128177;27;20027;-57
2022/03/18 01:20:17;;;;;;;8.55;6.25;;;27.20;99.90;;;;;;5147734;27;20022;-59
2022/03/18 01:22:44;;;;;;;9.85;5.35;;;27.10;99.90;;;;;;5158088;27;20031;-62
2022/03/18 01:25:11;;;;;;;9.43;5.15;;;27.10;99.90;;;;;;5140457;27;20023;-61
2022/03/18 01:27:37;;;;;;;8.02;5.28;;;27.10;99.90;;;;;;5152388;27;20020;-58
2022/03/18 01:30:05;;;;;;;7.38;4.93;;;27.20;99.90;;;;;;5146153;27;20031;-61
2022/03/18 01:32:33;;;;;;;6.93;5.28;;;27.20;99.90;;;;;;5134548;27;20088;-61
2022/03/18 01:35:01;;;;;;;12.75;8.35;;;27.20;99.90;;;;;;5151480;27;20050;-57
2022/03/18 01:37:28;;;;;;;14.48;6.45;;;27.20;99.90;;;;;;5123041;27;20026;-63
2022/03/18 01:39:55;;;;;;;17.95;6.82;;;27.20;99.90;;;;;;5132973;27;20038;-62
2022/03/18 01:42:21;;;;;;;14.88;8.93;;;27.20;99.90;;;;;;5139039;27;20034;-61
2022/03/18 01:44:48;;;;;;;18.10;13.30;;;27.20;99.90;;;;;;5136737;27;20031;-61
2022/03/18 01:47:15;;;;;;;15.82;9.48;;;27.20;99.90;;;;;;5138299;27;20042;-62
2022/03/18 01:49:42;;;;;;;8.52;7.32;;;27.20;99.90;;;;;;5125449;27;20019;-59
2022/03/18 01:52:10;;;;;;;10.05;6.97;;;27.20;99.90;;;;;;5125887;27;20523;-61
2022/03/18 01:54:44;;;;;;;168.27;124.90;;;27.20;99.90;;;;;;5136572;27;20111;-61
2022/03/18 01:57:12;;;;;;;31.38;21.42;;;27.20;99.90;;;;;;5138132;27;20023;-59
2022/03/18 01:59:38;;;;;;;15.80;7.20;;;27.20;99.90;;;;;;5134156;27;20455;-62
2022/03/18 02:02:05;;;;;;;21.30;15.20;;;27.20;99.90;;;;;;5139568;27;20035;-61
2022/03/18 02:04:33;;;;;;;20.10;11.60;;;27.20;99.90;;;;;;5149267;27;20502;-63
2022/03/18 02:07:00;;;;;;;8.80;6.30;;;27.20;99.90;;;;;;5146707;27;20037;-63
2022/03/18 02:09:26;;;;;;;11.60;7.00;;;27.20;99.90;;;;;;5138862;27;20054;-64
2022/03/18 02:11:55;;;;;;;10.05;6.95;;;27.20;99.90;;;;;;5149214;27;20026;-65
2022/03/18 02:14:36;;;;;;;10.77;7.43;;;27.20;99.90;;;;;;5147373;27;20083;-64
2022/03/18 02:17:05;;;;;;;8.43;6.82;;;27.10;99.90;;;;;;5139875;27;20023;-64
2022/03/18 02:19:32;;;;;;;10.65;8.52;;;27.10;99.90;;;;;;5136560;27;20471;-63
2022/03/18 02:21:59;;;;;;;20.85;8.80;;;27.10;99.90;;;;;;5135864;27;20035;-63
2022/03/18 02:24:26;;;;;;;19.98;8.48;;;27.20;99.90;;;;;;5136726;27;20399;-63
2022/03/18 02:26:54;;;;;;;13.80;9.10;;;27.20;99.90;;;;;;5134556;27;20060;-60
2022/03/18 02:29:22;;;;;;;13.93;8.63;;;27.20;99.90;;;;;;5133341;27;20030;-60
2022/03/18 02:31:49;;;;;;;11.20;7.85;;;27.20;99.90;;;;;;5137012;27;20086;-61
2022/03/18 02:34:16;;;;;;;13.90;9.07;;;27.20;99.90;;;;;;5133548;27;20104;-62
2022/03/18 02:36:43;;;;;;;21.02;14.70;;;27.20;99.90;;;;;;5134446;27;20020;-62
2022/03/18 02:39:10;;;;;;;17.95;13.07;;;27.20;99.90;;;;;;5139040;27;20555;-62
2022/03/18 02:41:36;;;;;;;19.20;13.68;;;27.20;99.90;;;;;;5139245;27;20027;-60
2022/03/18 02:44:03;;;;;;;22.42;15.63;;;27.20;99.90;;;;;;5138785;27;20102;-61
2022/03/18 02:46:32;;;;;;;25.85;16.70;;;27.20;99.90;;;;;;5136903;27;20015;-61
2022/03/18 02:49:04;;;;;;;19.73;13.98;;;27.20;99.90;;;;;;5135663;27;20380;-61
2022/03/18 02:51:31;;;;;;;118.40;81.70;;;27.20;99.90;;;;;;5136930;27;20023;-61
2022/03/18 02:53:58;;;;;;;24.23;18.15;;;27.20;99.90;;;;;;5138071;27;20183;-62
2022/03/18 02:56:25;;;;;;;16.55;11.90;;;27.20;99.90;;;;;;5135552;27;20019;-62
2022/03/18 02:58:52;;;;;;;14.95;10.38;;;27.20;99.90;;;;;;5147497;27;20038;-62
2022/03/18 03:01:19;;;;;;;14.70;10.00;;;27.20;99.90;;;;;;5139017;27;20043;-61
2022/03/18 03:03:46;;;;;;;24.88;13.57;;;27.30;99.90;;;;;;5141643;27;20023;-63
2022/03/18 03:08:51;;;;;;;21.80;16.60;;;27.30;99.90;;;;;;5136761;27;20034;-64
2022/03/18 03:11:18;;;;;;;24.83;18.98;;;27.40;99.90;;;;;;5135565;27;20026;-61
2022/03/18 03:13:44;;;;;;;18.92;15.43;;;27.40;99.90;;;;;;5139223;27;20031;-62
2022/03/18 03:16:11;;;;;;;19.33;15.90;;;27.40;99.90;;;;;;5137144;27;20023;-64
2022/03/18 03:18:38;;;;;;;18.42;15.40;;;27.50;99.90;;;;;;5137223;27;20054;-63
2022/03/18 03:21:05;;;;;;;19.10;12.73;;;27.60;99.90;;;;;;5137280;27;20144;-63
2022/03/18 03:23:31;;;;;;;30.15;18.17;;;27.60;99.90;;;;;;5131824;27;20111;-63
2022/03/18 03:25:58;;;;;;;40.75;26.08;;;27.60;99.90;;;;;;5128817;27;20035;-66
2022/03/18 03:28:25;;;;;;;43.33;27.60;;;27.60;99.90;;;;;;5136287;27;20023;-63
2022/03/18 03:30:51;;;;;;;42.60;27.58;;;27.60;99.90;;;;;;5131503;27;20027;-60
2022/03/18 03:33:18;;;;;;;34.03;21.52;;;27.60;99.90;;;;;;5136614;27;20109;-61
2022/03/18 03:35:45;;;;;;;28.52;17.13;;;27.60;99.90;;;;;;5136880;27;20027;-63
2022/03/18 03:38:15;;;;;;;28.85;15.98;;;27.60;99.90;;;;;;5136440;27;20059;-62
2022/03/18 03:40:43;;;;;;;23.30;15.52;;;27.60;99.90;;;;;;5134084;27;20441;-61
2022/03/18 03:43:11;;;;;;;23.70;16.05;;;27.60;99.90;;;;;;5134199;27;20058;-63
2022/03/18 03:45:38;;;;;;;31.63;17.17;;;27.60;99.90;;;;;;5131989;27;20090;-65
2022/03/18 03:48:06;;;;;;;28.95;16.42;;;27.60;99.90;;;;;;5133983;27;20027;-63
2022/03/18 03:50:33;;;;;;;25.52;16.63;;;27.60;99.90;;;;;;5136245;27;20347;-62
2022/03/18 03:53:02;;;;;;;28.83;17.05;;;27.60;99.90;;;;;;5136559;27;20083;-62
2022/03/18 03:55:29;;;;;;;32.15;23.17;;;27.60;99.90;;;;;;5133045;27;20102;-62
2022/03/18 03:57:55;;;;;;;73.45;51.25;;;27.60;99.90;;;;;;5133107;27;20096;-60
2022/03/18 04:00:22;;;;;;;47.38;30.00;;;27.60;99.90;;;;;;5132159;27;20125;-63
2022/03/18 04:02:49;;;;;;;125.30;82.50;;;27.60;99.90;;;;;;5133465;27;20023;-65
2022/03/18 04:05:16;;;;;;;42.80;30.20;;;27.70;99.90;;;;;;5134583;27;20043;-63
2022/03/18 04:07:44;;;;;;;30.88;23.98;;;27.70;99.90;;;;;;5136637;27;20094;-62
2022/03/18 04:10:13;;;;;;;34.92;25.70;;;27.70;99.90;;;;;;5138897;27;20051;-64
2022/03/18 04:12:40;;;;;;;53.80;36.63;;;27.70;99.90;;;;;;5128259;27;20016;-61
2022/03/18 04:15:08;;;;;;;63.20;46.50;;;27.70;99.90;;;;;;5135179;27;20023;-60
2022/03/18 04:17:43;;;;;;;83.07;64.25;;;27.80;99.90;;;;;;5131234;27;20391;-63
2022/03/18 04:20:16;;;;;;;91.45;70.65;;;27.70;99.90;;;;;;5133576;27;20027;-63
2022/03/18 04:22:43;;;;;;;92.53;73.10;;;27.80;99.90;;;;;;5140699;27;20158;-63
2022/03/18 04:25:10;;;;;;;88.07;73.15;;;27.80;99.90;;;;;;5150308;27;20041;-63
2022/03/18 04:27:38;;;;;;;85.15;66.15;;;27.80;99.90;;;;;;5142432;27;20307;-65
2022/03/18 04:30:09;;;;;;;87.63;66.93;;;27.80;99.90;;;;;;5140020;27;20496;-63
2022/03/18 04:32:36;;;;;;;85.15;68.22;;;27.80;99.90;;;;;;5137457;27;20027;-62
2022/03/18 04:35:04;;;;;;;83.50;70.93;;;27.90;99.90;;;;;;5142034;27;20128;-63
2022/03/18 04:37:30;;;;;;;90.43;72.00;;;27.90;99.90;;;;;;5139659;27;20026;-63
2022/03/18 04:39:57;;;;;;;88.93;67.15;;;27.90;99.90;;;;;;5132429;27;20475;-64
2022/03/18 04:42:24;;;;;;;81.32;65.72;;;27.90;99.90;;;;;;5143841;27;20495;-64
2022/03/18 04:44:51;;;;;;;81.47;64.53;;;27.90;99.90;;;;;;5149955;27;20113;-64
2022/03/18 04:47:18;;;;;;;75.70;59.55;;;28.00;99.90;;;;;;5142281;27;20058;-62
2022/03/18 04:49:45;;;;;;;82.03;60.40;;;28.00;99.90;;;;;;5136252;27;20027;-64
2022/03/18 04:52:12;;;;;;;75.03;53.83;;;28.00;99.90;;;;;;5141043;27;20417;-63
2022/03/18 04:54:38;;;;;;;66.93;47.95;;;28.10;99.90;;;;;;5147359;27;20083;-64
2022/03/18 04:59:35;;;;;;;69.78;51.05;;;28.10;99.90;;;;;;5136812;27;20131;-62
2022/03/18 05:02:02;;;;;;;64.60;48.53;;;28.10;99.90;;;;;;5131489;27;20032;-65
2022/03/18 05:04:29;;;;;;;45.60;35.40;;;28.10;99.90;;;;;;5156690;27;20046;-66
2022/03/18 05:06:55;;;;;;;34.95;23.67;;;28.10;99.90;;;;;;5137975;27;20363;-65
2022/03/18 05:09:23;;;;;;;21.65;17.05;;;28.10;99.90;;;;;;5144773;27;20027;-63
2022/03/18 05:11:50;;;;;;;23.83;16.73;;;28.10;99.90;;;;;;5141473;27;20349;-61
2022/03/18 05:14:16;;;;;;;26.60;18.50;;;28.10;99.90;;;;;;5144167;27;20106;-63
2022/03/18 05:16:43;;;;;;;21.00;18.25;;;28.10;99.90;;;;;;5136257;27;20027;-64
2022/03/18 05:19:10;;;;;;;22.17;18.80;;;28.10;99.90;;;;;;5136026;27;20353;-63
2022/03/18 05:21:39;;;;;;;26.20;19.15;;;28.10;99.90;;;;;;5134054;27;20038;-62
2022/03/18 05:24:07;;;;;;;21.20;17.33;;;28.10;99.90;;;;;;5138034;27;20020;-63
2022/03/18 05:26:34;;;;;;;20.33;18.25;;;28.10;99.90;;;;;;5139730;27;20072;-63
2022/03/18 05:29:02;;;;;;;25.85;20.73;;;28.10;99.90;;;;;;5137166;27;20547;-62
2022/03/18 05:31:31;;;;;;;28.58;22.85;;;28.20;99.90;;;;;;5132755;27;20023;-62
2022/03/18 05:33:58;;;;;;;25.45;19.55;;;28.20;99.90;;;;;;5134767;27;20495;-62
2022/03/18 05:36:25;;;;;;;26.95;18.45;;;28.30;99.90;;;;;;5133810;27;20345;-62
2022/03/18 05:38:51;;;;;;;20.30;16.15;;;28.40;99.90;;;;;;5132112;27;20031;-62
2022/03/18 05:41:18;;;;;;;22.73;17.13;;;28.40;99.90;;;;;;5130263;27;20055;-61
2022/03/18 05:43:45;;;;;;;24.50;15.45;;;28.50;99.90;;;;;;5130503;27;20038;-58
2022/03/18 05:46:11;;;;;;;17.42;15.63;;;28.60;99.90;;;;;;5129683;27;20037;-61
2022/03/18 05:48:38;;;;;;;19.00;15.32;;;28.60;99.90;;;;;;5133341;27;20019;-62
2022/03/18 05:51:05;;;;;;;15.00;12.18;;;28.70;99.90;;;;;;5128181;27;20027;-63
2022/03/18 05:53:31;;;;;;;16.63;13.07;;;28.80;99.90;;;;;;5134917;27;20023;-62
2022/03/18 05:58:37;;;;;;;12.93;11.00;;;29.00;99.90;;;;;;5131408;27;20491;-63
2022/03/18 06:01:04;;;;;;;20.17;10.13;;;29.10;99.90;;;;;;5134776;27;20131;-63
2022/03/18 06:03:30;;;;;;;12.90;9.98;;;29.20;99.90;;;;;;5130931;27;20035;-59
2022/03/18 06:05:59;;;;;;;12.73;9.57;;;29.30;99.90;;;;;;5128035;27;20047;-62
2022/03/18 06:13:42;;;;;;;15.43;9.60;;;29.50;99.90;;;;;;5130853;27;20038;-60
2022/03/18 06:16:09;;;;;;;14.35;9.50;;;29.50;99.90;;;;;;5137391;27;20049;-63
2022/03/18 06:18:35;;;;;;;15.10;9.73;;;29.60;99.90;;;;;;5131795;27;20031;-62
2022/03/18 06:21:06;;;;;;;13.90;7.70;;;29.60;99.90;;;;;;5126887;27;20042;-61
2022/03/18 06:23:34;;;;;;;15.52;8.05;;;29.60;99.90;;;;;;5132446;27;20027;-61
2022/03/18 06:26:02;;;;;;;7.95;5.82;;;29.60;99.90;;;;;;5128213;27;20053;-62
2022/03/18 06:28:30;;;;;;;9.52;6.75;;;29.60;99.90;;;;;;5133533;27;20028;-61
2022/03/18 06:30:57;;;;;;;15.10;6.50;;;29.60;99.90;;;;;;5131781;27;20524;-61
2022/03/18 06:33:24;;;;;;;7.95;5.90;;;29.60;99.90;;;;;;5134724;27;20035;-63
2022/03/18 06:35:50;;;;;;;16.23;7.47;;;29.50;99.90;;;;;;5109857;27;20031;-63
2022/03/18 06:38:17;;;;;;;7.63;6.13;;;29.40;99.90;;;;;;5131517;27;20103;-63
2022/03/18 06:40:44;;;;;;;11.10;7.38;;;29.40;99.90;;;;;;5132799;27;20027;-62
2022/03/18 06:43:10;;;;;;;11.88;8.35;;;29.40;99.90;;;;;;5134977;27;20076;-61
2022/03/18 06:45:37;;;;;;;23.40;17.08;;;29.40;99.90;;;;;;5133812;27;20031;-63
2022/03/18 06:48:04;;;;;;;12.35;8.98;;;29.40;99.90;;;;;;5135258;27;20043;-58
2022/03/18 06:50:31;;;;;;;20.23;14.05;;;29.40;99.90;;;;;;5133683;27;20038;-61
2022/03/18 06:52:58;;;;;;;16.00;12.80;;;29.50;99.90;;;;;;5133119;27;20502;-61
2022/03/18 06:55:24;;;;;;;18.15;12.25;;;29.60;99.90;;;;;;5133315;27;20035;-62
2022/03/18 06:57:51;;;;;;;13.55;9.15;;;29.70;99.90;;;;;;5135949;27;20041;-62
2022/03/18 07:00:18;;;;;;;19.67;12.25;;;29.90;99.90;;;;;;5133962;27;20394;-62
2022/03/18 07:02:45;;;;;;;44.72;33.75;;;30.00;99.90;;;;;;5133096;27;20520;-62
2022/03/18 07:05:12;;;;;;;30.55;24.05;;;30.00;99.90;;;;;;5133413;27;20055;-62
2022/03/18 07:07:40;;;;;;;11.45;8.23;;;30.10;99.90;;;;;;5134954;27;20031;-62
2022/03/18 07:10:07;;;;;;;16.63;11.45;;;30.00;99.90;;;;;;5130194;27;20035;-59
2022/03/18 07:12:34;;;;;;;16.58;10.93;;;30.00;99.90;;;;;;5129293;27;20038;-60
2022/03/18 07:15:00;;;;;;;41.50;31.15;;;30.00;99.90;;;;;;5131329;27;20106;-59
2022/03/18 07:20:06;;;;;;;17.15;11.70;;;30.00;99.90;;;;;;5131143;27;20027;-60
2022/03/18 07:22:32;;;;;;;23.13;17.52;;;30.00;99.90;;;;;;5130177;27;20062;-60
2022/03/18 07:24:59;;;;;;;39.83;33.92;;;30.00;99.90;;;;;;5131148;27;20027;-57
2022/03/18 07:27:26;;;;;;;88.60;73.22;;;30.00;99.90;;;;;;5134313;27;20028;-59
2022/03/18 07:29:52;;;;;;;37.58;29.15;;;30.00;99.90;;;;;;5133557;27;20023;-61
2022/03/18 07:32:19;;;;;;;14.65;9.75;;;30.00;99.90;;;;;;5130179;27;20068;-62
2022/03/18 07:34:46;;;;;;;10.40;8.43;;;29.90;99.90;;;;;;5133116;27;20076;-59
2022/03/18 07:37:12;;;;;;;9.57;6.40;;;29.90;99.90;;;;;;5132112;27;20054;-61
2022/03/18 07:39:39;;;;;;;23.88;17.08;;;29.90;99.90;;;;;;5124208;27;20031;-58
2022/03/18 07:42:06;;;;;;;9.27;6.90;;;29.90;99.90;;;;;;5130102;27;20194;-61
2022/03/18 07:44:36;;;;;;;24.45;19.42;;;29.90;99.90;;;;;;5131552;27;20039;-61
2022/03/18 07:47:03;;;;;;;16.50;8.57;;;29.90;99.90;;;;;;5134055;27;20027;-61
2022/03/18 07:49:30;;;;;;;15.70;8.38;;;29.90;99.90;;;;;;5130255;27;20031;-62
2022/03/18 07:51:57;;;;;;;16.23;11.15;;;29.90;99.90;;;;;;5129487;27;20027;-61
2022/03/18 07:54:24;;;;;;;25.55;22.88;;;30.00;99.90;;;;;;5134746;27;20107;-61
2022/03/18 07:56:51;;;;;;;25.98;14.48;;;30.00;99.90;;;;;;5134904;27;20483;-60
2022/03/18 07:59:17;;;;;;;9.70;4.85;;;30.00;99.90;;;;;;5127041;27;20104;-62
2022/03/18 08:01:44;;;;;;;11.02;5.95;;;29.90;99.90;;;;;;5133605;27;20099;-62
2022/03/18 08:04:12;;;;;;;17.42;9.32;;;29.90;99.90;;;;;;5134822;27;20456;-63
2022/03/18 08:06:40;;;;;;;11.85;7.53;;;29.90;99.90;;;;;;5130822;28;20059;-61
2022/03/18 08:09:07;;;;;;;27.13;20.40;;;29.90;99.90;;;;;;5124491;28;20019;-62
2022/03/18 08:11:33;;;;;;;29.70;19.77;;;29.90;99.90;;;;;;5131387;28;20376;-61
2022/03/18 08:14:01;;;;;;;25.92;18.27;;;29.90;99.90;;;;;;5133684;28;20034;-61
2022/03/18 08:16:27;;;;;;;18.13;12.02;;;29.90;99.90;;;;;;5133748;28;20106;-63
2022/03/18 08:18:56;;;;;;;35.25;27.90;;;29.90;99.90;;;;;;5131421;28;20038;-62
2022/03/18 08:21:24;;;;;;;24.13;16.25;;;29.90;99.90;;;;;;5126002;28;20038;-63
2022/03/18 08:23:51;;;;;;;11.23;8.80;;;29.90;99.90;;;;;;5119261;28;20027;-62
2022/03/18 08:26:17;;;;;;;13.20;8.32;;;29.90;99.90;;;;;;5129291;27;20421;-62
2022/03/18 08:28:44;;;;;;;101.90;82.13;;;29.90;99.90;;;;;;5134900;27;20035;-62
2022/03/18 08:31:11;;;;;;;92.10;73.82;;;29.90;99.90;;;;;;5136360;27;20032;-62
2022/03/18 08:33:38;;;;;;;103.60;81.38;;;29.80;99.90;;;;;;5123258;27;20104;-62
2022/03/18 08:36:05;;;;;;;42.83;32.65;;;29.90;99.90;;;;;;5129247;27;20042;-61
2022/03/18 08:38:32;;;;;;;46.40;37.05;;;29.90;99.90;;;;;;5135243;27;20031;-61
2022/03/18 08:40:59;;;;;;;22.77;15.65;;;29.90;99.90;;;;;;5124849;27;20027;-61
2022/03/18 08:43:25;;;;;;;18.27;12.40;;;29.90;99.90;;;;;;5132637;27;20376;-62
2022/03/18 08:45:52;;;;;;;15.35;11.25;;;29.90;99.90;;;;;;5132501;27;20414;-63
2022/03/18 08:48:19;;;;;;;12.80;9.07;;;29.90;99.90;;;;;;5134919;27;20019;-62
2022/03/18 08:50:46;;;;;;;13.13;8.95;;;29.90;99.90;;;;;;5138189;27;20019;-63
2022/03/18 08:53:12;;;;;;;13.48;9.73;;;29.90;99.90;;;;;;5128655;27;20091;-62
2022/03/18 08:55:40;;;;;;;38.25;30.10;;;29.90;99.90;;;;;;5123058;27;20028;-63
2022/03/18 08:58:10;;;;;;;74.15;60.38;;;29.90;99.90;;;;;;5118008;28;20019;-62
2022/03/18 09:00:37;;;;;;;69.25;59.47;;;29.90;99.90;;;;;;5127144;27;20034;-62
2022/03/18 09:03:04;;;;;;;32.25;26.60;;;29.90;99.90;;;;;;5132732;27;20035;-62
2022/03/18 09:05:32;;;;;;;31.73;24.02;;;29.80;99.90;;;;;;5119474;27;20408;-60
2022/03/18 09:08:00;;;;;;;19.15;12.65;;;29.90;99.90;;;;;;5121045;27;20039;-62
2022/03/18 09:10:27;;;;;;;19.98;13.43;;;29.80;99.90;;;;;;5119000;27;20079;-62
2022/03/18 09:12:58;;;;;;;21.58;12.05;;;29.80;99.90;;;;;;5130814;27;20100;-61
2022/03/18 09:15:25;;;;;;;19.50;12.03;;;29.80;99.90;;;;;;5131558;27;20065;-61
2022/03/18 09:17:52;;;;;;;16.35;11.82;;;29.80;99.90;;;;;;5117312;28;20098;-62
2022/03/18 09:20:19;;;;;;;19.90;9.90;;;29.80;99.90;;;;;;5132035;27;20950;-61
2022/03/18 09:22:46;;;;;;;15.43;10.25;;;29.70;99.90;;;;;;5127784;27;20046;-61
2022/03/18 09:25:14;;;;;;;19.02;9.30;;;29.80;99.90;;;;;;5136553;27;20106;-63
2022/03/18 09:27:41;;;;;;;24.88;18.17;;;29.70;99.90;;;;;;5134286;27;20036;-61
2022/03/18 09:30:10;;;;;;;59.33;45.13;;;29.70;99.90;;;;;;5132539;27;20106;-61
2022/03/18 09:32:38;;;;;;;67.25;49.25;;;29.70;99.90;;;;;;5132101;27;20015;-62
2022/03/18 09:35:05;;;;;;;47.40;35.85;;;29.70;99.90;;;;;;5134439;27;20032;-61
2022/03/18 09:37:32;;;;;;;35.72;21.27;;;29.60;99.90;;;;;;5133311;27;20073;-62
2022/03/18 09:40:01;;;;;;;55.70;41.95;;;29.60;99.90;;;;;;5133814;27;20069;-62
2022/03/18 09:42:28;;;;;;;48.70;29.10;;;29.60;99.90;;;;;;5130951;27;20089;-62
2022/03/18 09:44:55;;;;;;;56.33;37.85;;;29.60;99.90;;;;;;5136810;27;20030;-63
2022/03/18 09:47:22;;;;;;;46.75;28.52;;;29.50;99.90;;;;;;5136302;27;20035;-61
2022/03/18 09:49:49;;;;;;;50.58;29.92;;;29.50;99.90;;;;;;5134083;27;20015;-62
2022/03/18 09:52:16;;;;;;;56.30;33.42;;;29.50;99.90;;;;;;5139742;27;20024;-62
2022/03/18 09:54:42;;;;;;;42.60;26.92;;;29.50;99.90;;;;;;5134548;27;20055;-61
2022/03/18 09:57:11;;;;;;;46.22;26.27;;;29.50;99.90;;;;;;5136036;27;20027;-61
2022/03/18 09:59:38;;;;;;;42.70;25.70;;;29.40;99.90;;;;;;5133353;27;20023;-61
2022/03/18 10:02:22;;;;;;;32.20;21.60;;;29.40;99.90;;;;;;5135004;27;20037;-61
2022/03/18 10:04:57;;;;;;;30.70;20.52;;;29.30;99.90;;;;;;5134265;27;20103;-61
2022/03/18 10:07:29;;;;;;;35.63;20.70;;;29.30;99.90;;;;;;5135300;27;20278;-62
2022/03/18 10:10:11;;;;;;;36.97;18.67;;;29.30;99.90;;;;;;5129871;27;20462;-62
2022/03/18 10:12:41;;;;;;;29.27;16.33;;;29.30;99.90;;;;;;5130370;27;20127;-61
2022/03/18 10:15:11;;;;;;;28.45;15.60;;;29.20;99.90;;;;;;5135354;27;20156;-61
2022/03/18 10:17:44;;;;;;;26.33;16.95;;;29.20;99.90;;;;;;5135826;27;20483;-61
2022/03/18 10:20:30;;;;;;;30.92;17.38;;;29.10;99.90;;;;;;5135156;27;20038;-59
2022/03/18 10:23:05;;;;;;;20.63;13.50;;;29.10;99.90;;;;;;5135922;27;20131;-57
2022/03/18 10:25:51;;;;;;;30.98;15.80;;;28.90;99.90;;;;;;5132272;27;20052;-56
2022/03/18 10:28:37;;;;;;;29.13;16.85;;;28.90;99.90;;;;;;5130020;27;20215;-57
2022/03/18 10:31:14;;;;;;;26.60;14.45;;;28.90;99.90;;;;;;5132333;27;20034;-59
2022/03/18 10:49:16;;;;;;;39.33;24.05;;;28.80;99.90;;;;;;5130390;27;20448;-59
2022/03/18 10:51:44;;;;;;;31.73;19.52;;;29.30;99.90;;;;;;5127748;27;20023;-58
2022/03/18 10:54:11;;;;;;;33.97;22.20;;;29.20;99.90;;;;;;5130567;27;20039;-56
2022/03/18 10:56:59;;;;;;;36.95;25.02;;;29.10;99.90;;;;;;5128710;27;20035;-58
2022/03/18 10:59:27;;;;;;;35.42;24.23;;;29.00;99.90;;;;;;5086846;28;20044;-59
2022/03/18 11:01:56;;;;;;;40.92;23.13;;;29.00;99.90;;;;;;5081906;28;20040;-58
2022/03/18 11:04:26;;;;;;;36.08;22.60;;;28.90;99.90;;;;;;5084111;28;20029;-58
2022/03/18 11:12:33;;;;;;;39.85;23.27;;;28.80;99.90;;;;;;5083615;28;20509;-56
2022/03/18 11:15:02;;;;;;;40.42;24.13;;;28.70;99.90;;;;;;5087724;28;20081;-59
2022/03/18 11:17:29;;;;;;;44.10;24.15;;;28.70;99.90;;;;;;5085852;28;20032;-58
2022/03/18 11:20:01;;;;;;;48.85;25.58;;;28.60;99.90;;;;;;5088023;28;20116;-59
2022/03/18 11:22:34;;;;;;;35.13;24.23;;;28.50;99.90;;;;;;5061824;28;20035;-58
2022/03/18 11:25:02;;;;;;;34.03;22.88;;;28.40;99.90;;;;;;5085940;28;20505;-59
2022/03/18 11:27:29;;;;;;;39.47;25.17;;;28.40;99.90;;;;;;5073674;28;20098;-58
2022/03/18 11:30:35;;;;;;;36.85;27.67;;;28.40;99.90;;;;;;5077232;28;20044;-60
2022/03/18 11:33:10;;;;;;;52.85;34.92;;;28.40;99.90;;;;;;5083165;28;20040;-58
2022/03/18 11:36:07;;;;;;;46.92;33.53;;;28.40;99.90;;;;;;5078855;28;20084;-59
2022/03/18 11:38:58;;;;;;;46.45;30.02;;;28.50;99.90;;;;;;5065210;28;20056;-59
2022/03/18 11:41:27;;;;;;;50.08;28.55;;;28.40;99.90;;;;;;5065049;28;20458;-59
2022/03/18 11:43:55;;;;;;;41.83;23.02;;;28.40;99.90;;;;;;5059639;28;20065;-59
2022/03/18 11:46:23;;;;;;;36.67;20.05;;;28.50;99.90;;;;;;5062849;28;20035;-59
2022/03/18 11:48:59;;;;;;;32.50;20.83;;;28.50;99.90;;;;;;5052951;28;20041;-58
2022/03/18 11:51:30;;;;;;;33.58;17.08;;;28.40;99.90;;;;;;5043760;28;20067;-59
2022/03/18 11:53:59;;;;;;;32.47;16.65;;;28.30;99.90;;;;;;5046020;28;20028;-60
2022/03/18 11:56:55;;;;;;;40.03;17.30;;;28.30;99.90;;;;;;5078895;28;20528;-60
2022/03/18 11:59:49;;;;;;;40.45;21.75;;;28.20;99.90;;;;;;5095272;28;20042;-57
2022/03/18 12:02:16;;;;;;;40.17;23.13;;;28.20;99.90;;;;;;5086955;28;20028;-59
2022/03/18 12:04:50;;;;;;;39.03;21.63;;;28.10;99.90;;;;;;5090521;28;20050;-60
2022/03/18 12:07:19;;;;;;;33.80;19.05;;;28.10;99.90;;;;;;5081492;28;20020;-56
2022/03/18 12:09:55;;;;;;;33.95;19.20;;;28.00;99.90;;;;;;5094991;28;20157;-59
2022/03/18 12:12:32;;;;;;;34.67;17.73;;;28.00;99.90;;;;;;5094119;28;20032;-59
2022/03/18 12:15:05;;;;;;;29.15;16.20;;;28.00;99.90;;;;;;5106900;28;20039;-58
2022/03/18 12:17:40;;;;;;;25.05;15.32;;;28.00;99.90;;;;;;5092442;28;20043;-60
2022/03/18 12:20:07;;;;;;;30.13;15.88;;;28.00;99.90;;;;;;5093099;28;20020;-61
2022/03/18 12:22:38;;;;;;;30.15;16.48;;;27.90;99.90;;;;;;5092916;28;20105;-61
2022/03/18 12:25:06;;;;;;;99.25;75.38;;;27.80;99.90;;;;;;5093481;28;20024;-60
2022/03/18 12:27:36;;;;;;;37.40;21.17;;;27.80;99.90;;;;;;5095019;28;20028;-59
2022/03/18 12:30:08;;;;;;;59.58;41.75;;;27.80;99.90;;;;;;5090546;28;20434;-60
2022/03/18 12:32:39;;;;;;;28.60;15.07;;;27.80;99.90;;;;;;5092136;28;20043;-59
2022/03/18 12:35:06;;;;;;;24.33;15.20;;;27.70;99.90;;;;;;5073656;28;20044;-60
2022/03/18 12:37:34;;;;;;;25.63;15.73;;;27.70;99.90;;;;;;5087206;28;20110;-60
2022/03/18 12:40:01;;;;;;;23.38;15.20;;;27.70;99.90;;;;;;5093239;28;20024;-61
2022/03/18 12:42:27;;;;;;;22.45;14.13;;;27.60;99.90;;;;;;5093858;28;20099;-58
2022/03/18 12:44:59;;;;;;;20.80;14.88;;;27.60;99.90;;;;;;5094308;28;20474;-60
2022/03/18 12:47:31;;;;;;;25.65;14.95;;;27.60;99.90;;;;;;5094929;28;20082;-61
2022/03/18 12:49:59;;;;;;;28.87;17.67;;;27.70;99.90;;;;;;5094873;28;20024;-61
2022/03/18 12:52:26;;;;;;;27.35;16.80;;;27.70;99.90;;;;;;5094683;28;20072;-60
2022/03/18 12:55:06;;;;;;;29.60;17.05;;;27.80;99.90;;;;;;5095010;28;20492;-59
2022/03/18 12:57:37;;;;;;;29.75;19.23;;;27.80;99.90;;;;;;5091282;28;20036;-60
2022/03/18 13:00:06;;;;;;;30.08;19.98;;;27.80;99.90;;;;;;5094789;28;20016;-59
2022/03/18 13:02:36;;;;;;;26.42;20.35;;;27.80;99.90;;;;;;5095034;28;20036;-56
2022/03/18 13:05:05;;;;;;;30.25;17.50;;;27.90;99.90;;;;;;5090524;28;20043;-60
2022/03/18 13:07:32;;;;;;;20.42;15.63;;;27.80;99.90;;;;;;5092955;28;20123;-58
2022/03/18 13:09:59;;;;;;;19.42;13.05;;;27.80;99.90;;;;;;5093816;28;20032;-60
2022/03/18 13:12:35;;;;;;;21.33;13.00;;;27.80;99.90;;;;;;5093716;28;20024;-60
2022/03/18 13:15:22;;;;;;;18.00;12.57;;;27.70;99.90;;;;;;5093339;28;20027;-58
2022/03/18 13:17:49;;;;;;;24.00;12.70;;;27.80;99.90;;;;;;5086738;28;20038;-61
2022/03/18 13:20:24;;;;;;;20.77;12.55;;;27.70;99.90;;;;;;5091395;28;20020;-60
2022/03/18 13:22:53;;;;;;;21.27;12.00;;;27.80;99.90;;;;;;5089000;28;20081;-60
2022/03/18 13:25:20;;;;;;;20.88;12.23;;;27.70;99.90;;;;;;5091864;28;20024;-60